Date,TemperatureHighF,TemperatureAvgF,TemperatureLowF,DewpointHighF,DewpointAvgF,DewpointLowF,HumidityHigh,HumidityAvg,HumidityLow,PressureMaxIn,PressureMinIn,WindSpeedMaxMPH,WindSpeedAvgMPH,GustSpeedMaxMPH,PrecipitationSumIn
2013-8-27,77.1,64.2,54.6,60.0,56.8,53.2,97,79,48,29.93,29.85,5,2,0,0.00
2013-8-28,78.1,65.7,58.9,63.2,60.0,57.4,96,83,58,29.97,29.88,5,2,0,0.00
2013-8-29,78.6,66.6,59.5,63.6,61.0,58.5,98,84,58,30.08,29.97,5,2,0,0.00
2013-8-30,85.3,70.6,60.7,64.0,61.1,58.8,97,75,42,30.06,29.93,6,2,0,0.00
2013-8-31,77.6,64.9,56.7,59.8,57.6,55.0,97,79,49,30.00,29.92,5,2,0,0.00
2013-9-1,78.9,66.1,58.2,61.9,58.3,56.0,93,78,46,29.97,29.90,6,2,0,0.00
2013-9-2,72.9,65.1,62.6,62.7,61.5,60.6,94,88,70,29.97,29.37,5,1,11,0.00
2013-9-3,74.4,69.5,61.1,59.8,57.5,51.1,90,67,46,29.49,29.42,7,4,16,0.00
2013-9-4,74.9,68.0,61.6,60.1,59.1,57.9,90,74,58,29.52,29.43,7,4,16,0.00
2013-9-5,75.3,65.0,59.7,60.0,58.2,56.0,92,80,56,29.50,29.44,6,3,14,0.00
2013-9-6,90.6,71.7,55.0,60.8,54.6,49.1,95,61,26,29.48,29.30,6,2,13,0.00
2013-9-7,93.5,83.4,66.0,54.8,50.4,45.7,62,34,21,29.35,29.27,7,3,10,0.00
2013-9-8,82.8,71.9,62.1,60.1,56.5,52.1,81,59,35,29.34,29.23,3,1,10,0.00
2013-9-9,89.1,75.5,60.0,60.1,55.7,46.4,88,54,26,29.29,29.19,7,2,9,0.00
2013-9-10,76.4,63.9,56.2,60.0,57.6,54.6,96,81,55,29.38,29.22,7,2,12,0.00
2013-9-11,72.0,64.4,59.7,59.2,57.6,55.8,89,79,62,29.48,29.37,7,3,11,0.00
2013-9-12,75.0,64.6,59.3,61.8,59.3,57.4,94,84,62,29.46,29.38,5,2,10,0.00
2013-9-13,72.4,62.9,57.1,58.3,56.5,55.1,96,81,60,29.40,29.27,5,2,9,0.00
2013-9-14,65.6,59.0,56.1,58.5,56.0,54.8,96,90,77,29.33,29.25,5,2,9,0.00
2013-9-15,74.4,63.1,56.9,59.9,56.6,53.6,93,81,57,29.36,29.28,6,3,10,0.00
2013-9-16,75.9,65.7,59.1,59.8,58.1,55.9,97,78,56,29.38,29.29,5,2,13,0.00
2013-9-17,72.4,62.8,56.2,57.7,55.7,53.2,92,79,52,29.37,29.32,7,3,9,0.00
2013-9-18,79.5,64.6,52.8,56.8,52.1,45.2,95,68,32,29.40,29.31,6,2,11,0.00
2013-9-19,87.0,67.7,54.1,54.6,48.3,41.1,88,55,22,29.34,29.23,7,1,7,0.00
2013-9-20,72.0,61.7,52.3,61.2,56.6,49.8,94,84,65,29.35,29.25,7,2,15,0.00
2013-9-21,66.2,61.5,55.5,59.8,57.1,54.0,96,86,69,29.38,29.29,7,2,12,0.58
2013-9-22,69.8,60.3,51.6,58.3,53.9,50.8,98,81,55,29.49,29.38,6,1,12,0.01
2013-9-23,79.5,64.8,53.5,60.7,56.1,51.7,96,76,41,29.51,29.42,5,1,7,0.00
2013-9-24,72.0,62.0,56.0,58.3,54.5,48.1,96,78,53,29.48,29.39,9,2,15,0.00
2013-9-25,67.1,59.2,51.4,49.4,47.3,42.7,88,66,42,29.42,29.30,8,2,13,0.00
2013-9-26,72.0,58.6,47.6,48.3,43.6,35.9,84,61,28,29.47,29.32,7,2,11,0.00
2013-9-27,75.2,63.7,51.6,49.0,41.8,35.0,82,49,24,29.58,29.47,7,2,12,0.00
2013-9-29,68.3,62.6,59.9,59.6,58.7,57.7,94,87,72,29.57,29.53,4,1,4,0.00
2013-9-30,73.5,64.4,57.0,61.7,59.4,55.0,95,84,63,29.56,29.45,7,2,10,0.00
2013-10-1,69.3,60.1,51.7,54.7,51.4,48.2,94,75,51,29.50,29.41,5,1,10,0.00
2013-10-2,73.8,59.8,51.6,55.4,50.3,47.3,90,73,41,30.03,29.41,6,1,9,0.00
2013-10-3,73.7,61.6,47.9,48.9,36.8,26.0,88,46,18,30.09,29.97,8,2,18,0.00
2013-10-4,80.3,69.8,62.5,31.5,27.4,23.8,26,21,13,30.11,29.98,9,4,21,0.00
2013-10-5,85.6,72.3,59.8,33.3,26.6,20.9,31,19,11,30.21,30.11,4,2,9,0.00
2013-10-6,86.4,71.1,59.6,43.3,32.9,28.9,38,25,14,30.14,30.01,5,2,9,0.00
2013-10-7,80.7,66.4,55.4,51.4,37.3,27.0,81,38,16,30.02,29.90,6,1,8,0.00
2013-10-8,72.7,59.0,49.4,51.1,46.9,41.2,90,67,35,29.93,29.75,6,2,10,0.00
2013-10-9,65.9,56.5,47.5,49.0,45.9,41.3,94,70,44,29.77,29.65,6,2,8,0.00
2013-10-10,70.0,60.2,49.5,50.4,47.2,42.0,91,64,38,30.03,29.89,5,2,7,0.00
2013-10-11,66.2,54.3,47.4,52.5,48.4,45.1,95,82,56,30.10,30.00,5,1,8,0.00
2013-10-12,65.5,54.6,48.0,49.6,47.8,45.2,92,79,53,30.02,29.94,5,1,6,0.00
2013-10-13,52.1,50.6,49.3,50.1,48.7,47.2,95,93,91,30.03,29.95,1,0,3,0.01
2013-10-14,79.3,64.3,50.6,41.5,37.9,32.8,68,41,19,30.14,30.02,5,2,0,0.00
2013-10-15,80.4,66.5,52.4,36.2,32.6,29.3,54,31,16,30.07,29.97,4,2,0,0.00
2013-10-16,81.9,68.2,56.6,46.5,33.5,26.9,42,29,17,30.11,30.02,4,1,0,0.00
2013-10-17,80.3,66.7,54.9,44.1,35.6,29.7,45,33,16,30.10,29.99,4,1,3,0.00
2013-10-18,80.9,63.2,51.4,48.2,41.8,34.4,69,47,25,30.08,30.00,4,1,7,0.00
2013-10-19,82.4,65.1,51.9,53.4,45.8,40.5,69,52,28,30.09,30.01,3,1,6,0.00
2013-10-20,75.9,57.7,48.9,54.3,49.0,46.1,93,75,43,30.04,29.93,4,1,5,0.00
2013-10-21,70.9,55.7,46.6,52.6,49.2,45.0,98,81,52,30.03,29.93,3,1,6,0.00
2013-10-22,72.9,55.1,44.7,54.7,49.6,43.8,98,84,52,30.04,29.94,3,1,5,0.01
2013-10-23,66.5,52.6,45.6,54.2,49.3,44.8,98,90,62,30.00,29.92,3,1,6,0.01
2013-10-24,59.1,51.8,47.6,50.2,48.6,46.2,96,89,72,30.13,30.00,4,1,8,0.00
2013-10-25,70.3,56.8,47.5,53.3,50.1,46.1,96,80,54,30.19,30.10,4,1,6,0.00
2013-10-26,76.9,60.3,47.7,56.0,50.6,46.1,96,73,43,30.17,30.03,3,1,5,0.00
2013-10-27,55.5,51.7,46.8,50.1,48.2,45.4,97,88,79,30.05,29.71,11,4,18,0.00
2013-10-28,59.3,52.6,45.7,49.4,47.2,43.7,95,82,62,29.87,29.70,7,2,13,0.00
2013-10-29,60.4,53.9,46.7,49.6,47.1,44.0,93,79,57,30.07,29.87,4,1,8,0.00
2013-10-30,65.5,53.6,43.9,50.8,46.0,42.0,96,77,52,30.17,30.07,5,1,8,0.01
2013-10-31,70.9,57.5,45.9,47.1,44.2,39.6,87,63,39,30.20,30.09,3,1,6,0.00
2013-11-1,76.5,62.0,51.4,48.9,44.2,40.8,72,54,34,30.16,30.03,6,1,8,0.00
2013-11-2,68.1,57.3,49.9,53.6,47.4,42.5,92,71,51,30.04,29.93,4,1,6,0.00
2013-11-3,65.4,52.7,43.1,47.5,37.4,24.2,93,61,22,30.07,29.94,4,1,9,0.00
2013-11-4,68.0,55.0,40.7,40.7,33.2,26.1,81,48,22,30.08,29.93,4,1,8,0.00
2013-11-5,72.6,60.4,48.8,36.4,32.7,28.2,48,36,23,30.24,30.08,5,1,6,0.00
2013-11-6,72.6,62.0,51.8,38.9,35.3,32.8,50,38,25,30.27,30.17,6,2,10,0.00
2013-11-7,73.2,60.3,51.8,50.8,40.6,34.5,93,51,26,30.19,30.10,4,1,6,0.00
2013-11-8,71.2,57.1,48.2,53.5,48.9,44.5,92,76,41,30.10,29.98,4,1,7,0.00
2013-11-9,72.3,57.3,46.8,51.8,45.8,39.6,88,67,39,30.07,29.98,4,1,6,0.00
2013-11-10,66.0,53.8,46.1,51.7,48.2,44.1,96,83,52,30.14,30.04,5,1,6,0.00
2013-11-11,66.1,56.3,47.6,53.1,50.1,46.2,97,80,61,30.19,30.10,4,1,6,0.00
2013-11-12,72.3,60.6,54.4,52.2,48.6,44.0,83,66,44,30.29,30.17,4,1,8,0.00
2013-11-13,74.1,67.6,58.2,55.1,51.6,47.1,81,58,39,30.27,30.13,4,2,6,0.00
2013-11-14,62.6,52.0,47.8,53.7,50.1,46.6,98,93,72,30.14,29.90,3,1,6,0.00
2013-11-15,62.4,51.7,45.3,48.4,45.0,40.2,95,80,44,29.91,29.76,4,1,7,0.01
2013-11-16,60.6,51.7,45.1,50.3,46.6,42.7,96,84,53,29.95,29.80,5,1,7,0.01
2013-11-17,61.0,52.8,47.6,49.9,46.7,43.3,96,81,58,30.11,29.95,3,1,7,0.00
2013-11-18,57.9,50.7,44.9,48.0,45.7,43.0,95,83,67,30.17,30.10,6,2,9,0.00
2013-11-19,60.6,53.5,48.6,54.7,50.0,46.4,96,88,70,30.12,29.97,2,0,4,0.39
2013-11-20,59.5,55.2,50.1,57.0,54.2,49.6,99,96,90,29.97,29.85,4,1,8,0.61
2013-11-21,60.5,53.5,48.6,49.5,37.3,19.3,98,62,26,29.99,29.91,10,3,37,0.03
2013-11-22,68.7,59.1,50.7,24.9,17.0,10.1,35,20,13,30.04,29.91,8,4,37,0.00
2013-11-23,64.1,53.8,44.7,43.9,34.5,23.3,82,50,27,30.12,29.98,5,1,7,0.00
2013-11-24,64.0,52.4,43.3,44.5,41.3,38.1,89,68,40,30.26,30.12,4,1,5,0.00
2013-11-25,65.9,53.3,43.0,47.2,41.8,38.0,83,66,44,30.34,30.26,4,2,7,0.00
2013-11-26,62.9,54.1,46.6,44.8,42.4,40.4,80,66,46,30.28,30.05,6,2,8,0.00
2013-11-27,66.5,55.6,48.0,47.0,45.1,42.5,82,69,47,30.05,29.86,6,2,11,0.00
2013-11-28,68.7,57.1,49.5,47.9,43.4,40.2,74,61,41,30.09,29.89,4,1,5,0.00
2013-11-29,70.3,56.9,47.4,47.4,43.4,39.9,77,62,35,30.23,30.09,3,1,5,0.00
2013-11-30,65.8,54.6,47.4,50.4,46.1,42.6,85,74,55,30.28,30.21,3,1,6,0.00
2013-12-1,70.4,57.1,46.1,50.6,45.2,41.9,87,66,39,30.36,30.23,3,1,4,0.00
2013-12-2,60.0,52.6,47.3,51.5,47.2,42.1,96,82,69,30.25,29.98,4,1,7,0.00
2013-12-3,53.7,48.5,41.2,52.9,36.0,19.8,97,64,37,29.98,29.87,8,2,12,0.00
2013-12-4,50.8,42.1,35.1,27.7,19.3,12.5,69,41,29,30.09,29.95,4,1,7,0.00
2013-12-5,50.3,39.6,31.5,24.3,16.5,12.4,62,40,26,30.18,30.08,5,1,7,0.00
2013-12-6,49.6,43.0,34.3,45.8,32.6,24.6,97,68,42,30.20,29.92,6,2,8,0.45
2013-12-7,46.9,41.2,34.0,44.4,31.6,24.5,96,71,43,30.21,29.93,10,2,15,0.10
2013-12-8,36.1,32.7,29.6,28.4,22.8,14.4,89,69,41,30.32,30.24,4,0,0,0.00
2013-12-9,50.0,39.6,31.4,25.8,19.1,8.6,62,45,27,30.42,30.31,6,2,0,0.00
2013-12-10,53.9,41.2,33.9,29.6,26.0,23.3,73,55,35,30.41,30.22,5,2,0,0.00
2013-12-11,56.8,45.6,34.1,31.1,26.7,23.3,69,49,32,30.25,30.18,14,2,4,0.00
2013-12-12,60.3,48.0,40.9,37.1,32.4,27.4,76,56,34,30.27,30.17,5,2,7,0.00
2013-12-13,59.2,46.6,37.2,44.5,39.4,34.6,97,77,55,30.35,30.24,3,1,4,0.00
2013-12-14,61.6,50.2,41.3,39.8,33.6,28.3,76,54,36,30.41,30.32,5,1,8,0.00
2013-12-15,64.0,52.5,44.5,40.4,34.4,28.7,66,51,35,30.37,30.25,4,2,7,0.00
2013-12-16,69.8,57.3,48.1,37.5,32.6,27.8,48,40,27,30.26,30.13,4,2,10,0.00
2013-12-17,66.1,56.3,48.7,40.7,36.1,29.9,56,47,36,30.19,30.04,6,1,8,0.00
2013-12-18,59.3,51.5,45.7,47.6,40.6,33.0,94,68,47,30.05,29.79,5,2,10,0.00
2013-12-19,59.3,47.8,40.0,45.6,34.3,18.2,94,64,33,29.95,29.74,4,1,7,0.00
2013-12-20,59.7,48.6,37.4,28.1,19.5,12.9,49,32,18,30.03,29.94,5,1,6,0.00
2013-12-21,62.0,50.8,42.7,48.6,42.0,28.1,92,73,53,30.10,29.99,3,1,6,0.00
2013-12-22,67.5,54.9,45.0,44.2,38.7,36.1,89,57,34,30.30,30.09,5,1,9,0.00
2013-12-23,65.2,53.3,43.7,40.6,37.9,36.0,75,57,38,30.40,30.30,5,1,7,0.00
2013-12-24,70.8,57.1,47.4,42.3,38.4,34.0,68,51,33,30.35,30.22,4,1,8,0.00
2013-12-25,66.7,56.3,46.3,42.6,36.7,30.4,66,48,38,30.30,30.21,6,2,8,0.00
2013-12-26,69.9,57.4,46.3,41.1,36.9,31.3,73,48,33,30.27,30.17,5,2,11,0.00
2013-12-27,62.5,55.3,47.7,44.1,38.1,32.1,67,53,44,30.24,30.14,7,2,9,0.01
2013-12-28,65.9,52.0,43.2,40.2,33.3,22.0,70,51,25,30.16,30.04,4,1,5,0.00
2013-12-29,70.5,59.0,49.6,32.2,21.8,13.2,50,25,16,30.19,30.10,5,2,10,0.00
2013-12-30,64.7,53.6,45.9,40.6,35.1,30.8,66,50,33,30.27,30.19,6,2,8,0.00
2013-12-31,63.1,50.0,42.2,46.0,37.4,28.8,76,62,47,30.28,30.17,3,1,5,0.00
2014-1-1,63.9,52.4,42.7,44.7,33.5,26.8,61,49,39,30.23,30.14,3,1,5,0.00
2014-1-2,67.9,55.9,46.2,42.4,33.8,27.9,53,43,31,30.19,30.07,5,1,6,0.00